Time;durP1;ratioP1;P1;durP2;ratioP2;P2;SDS_P1;SDS_P2;PMS_P1;PMS_P2;Temp;Humidity;BMP_temperature;BMP_pressure;BME280_temperature;BME280_humidity;BME280_pressure;Samples;Min_cycle;Max_cycle;Signal;HPM_P1;HPM_P2
2023/11/11 00:00:22;;;;;;;;;4.00;4.00;;;;;13.35;100.00;100069.19;2102901;28;46239;-48
2023/11/11 00:01:23;;;;;;;;;6.00;6.00;;;;;13.34;100.00;100072.81;2104061;28;46369;-50
2023/11/11 00:02:23;;;;;;;;;5.67;5.33;;;;;13.34;100.00;100072.81;2104829;28;46497;-47
2023/11/11 00:03:23;;;;;;;;;7.00;6.33;;;;;13.34;100.00;100075.47;2099326;28;46230;-48
2023/11/11 00:04:24;;;;;;;;;4.50;4.50;;;;;13.34;100.00;100080.78;2096884;28;46637;-45
2023/11/11 00:05:25;;;;;;;;;4.00;4.00;;;;;13.34;100.00;100074.56;2096631;28;46497;-46
2023/11/11 00:06:25;;;;;;;;;4.00;4.00;;;;;13.34;100.00;100079.91;2096671;28;46190;-46
2023/11/11 00:07:26;;;;;;;;;4.67;4.67;;;;;13.34;100.00;100082.56;2096855;28;46841;-46
2023/11/11 00:08:26;;;;;;;;;4.00;4.00;;;;;13.33;100.00;100076.38;2099690;28;46515;-46
2023/11/11 00:09:27;;;;;;;;;6.50;5.00;;;;;13.34;100.00;100072.81;2068385;28;46267;-47
2023/11/11 00:10:28;;;;;;;;;5.00;5.00;;;;;13.34;100.00;100078.13;2063234;28;46855;-47
2023/11/11 00:11:28;;;;;;;;;4.00;4.00;;;;;13.34;100.00;100072.81;2063311;28;46217;-47
2023/11/11 00:12:29;;;;;;;;;4.00;4.00;;;;;13.34;100.00;100074.56;2062725;28;46549;-44
2023/11/11 00:13:29;;;;;;;;;4.67;4.67;;;;;13.34;100.00;100077.22;2057582;28;46529;-46
2023/11/11 00:14:29;;;;;;;;;6.67;6.00;;;;;13.34;100.00;100079.91;2063020;28;46650;-48
2023/11/11 00:15:32;;;;;;;;;4.00;4.00;;;;;13.34;100.00;100082.56;2062844;28;46541;-48
2023/11/11 00:16:33;;;;;;;;;3.50;3.50;;;;;13.32;100.00;100084.44;2062976;28;46245;-46
2023/11/11 00:17:33;;;;;;;;;3.00;3.00;;;;;13.32;100.00;100087.97;2095058;28;46409;-48
2023/11/11 00:18:33;;;;;;;;;5.50;5.50;;;;;13.32;100.00;100084.44;2079616;28;46957;-48
2023/11/11 00:19:34;;;;;;;;;5.00;4.33;;;;;13.31;100.00;100082.69;2037475;28;46504;-46
2023/11/11 00:20:35;;;;;;;;;4.00;4.00;;;;;13.31;100.00;100082.69;2045992;28;45827;-47
2023/11/11 00:21:37;;;;;;;;;6.00;4.00;;;;;13.30;100.00;100081.84;2062417;28;46453;-45
2023/11/11 00:22:44;;;;;;;;;4.25;3.75;;;;;13.29;100.00;100087.25;2062771;28;46486;-46
2023/11/11 00:23:45;;;;;;;;;7.75;6.00;;;;;13.29;100.00;100082.78;2063294;28;46752;-45
2023/11/11 00:24:45;;;;;;;;;5.00;5.00;;;;;13.29;100.00;100079.25;2062768;28;46737;-50
2023/11/11 00:25:46;;;;;;;;;4.00;4.00;;;;;13.29;100.00;100084.56;2061580;28;46176;-47
2023/11/11 00:26:48;;;;;;;;;4.75;4.75;;;;;13.29;100.00;100088.09;2057049;28;46419;-49
2023/11/11 00:27:48;;;;;;;;;4.75;4.50;;;;;13.30;100.00;100083.63;2062880;28;46370;-47
2023/11/11 00:28:48;;;;;;;;;4.67;4.00;;;;;13.28;100.00;100082.84;2062823;28;46200;-45
2023/11/11 00:29:50;;;;;;;;;4.00;4.00;;;;;13.26;100.00;100082.91;2062771;28;46569;-44
2023/11/11 00:30:51;;;;;;;;;5.50;4.50;;;;;13.27;100.00;100083.78;2061756;28;46216;-48
2023/11/11 00:31:51;;;;;;;;;7.67;4.00;;;;;13.26;100.00;100080.25;2062963;28;46802;-46
2023/11/11 00:32:54;;;;;;;;;5.50;5.25;;;;;13.27;100.00;100087.31;2062934;28;46645;-44
2023/11/11 00:33:54;;;;;;;;;3.75;3.75;;;;;13.26;100.00;100090.91;2062953;28;46280;-46
2023/11/11 00:34:55;;;;;;;;;6.00;4.00;;;;;13.25;100.00;100087.38;2055292;28;46383;-47
2023/11/11 00:35:55;;;;;;;;;4.00;4.00;;;;;13.26;100.00;100082.91;2077881;28;47018;-46
2023/11/11 00:36:55;;;;;;;;;5.00;5.00;;;;;13.27;100.00;100086.44;2096494;28;46530;-49
2023/11/11 00:37:56;;;;;;;;;4.67;4.67;;;;;13.25;100.00;100087.38;2098845;28;45415;-47
2023/11/11 00:38:56;;;;;;;;;5.00;5.00;;;;;13.26;100.00;100088.25;2105457;27;46471;-46
2023/11/11 00:39:58;;;;;;;;;5.00;4.33;;;;;13.24;100.00;100082.13;2105823;27;46949;-48
2023/11/11 00:40:58;;;;;;;;;5.25;5.25;;;;;13.24;100.00;100087.44;2112240;27;47201;-47
2023/11/11 00:42:00;;;;;;;;;3.33;3.33;;;;;13.24;100.00;100084.78;2071770;27;46638;-46
2023/11/11 00:43:01;;;;;;;;;5.25;5.25;;;;;13.23;100.00;100089.25;2063025;28;46398;-43
2023/11/11 00:44:02;;;;;;;;;5.00;5.00;;;;;13.23;100.00;100083.91;2082232;28;45939;-48
2023/11/11 00:45:02;;;;;;;;;4.20;4.20;;;;;13.22;100.00;100082.19;2105329;28;46385;-46
2023/11/11 00:46:03;;;;;;;;;5.33;5.33;;;;;13.23;100.00;100089.25;2100878;28;45163;-46
2023/11/11 00:47:04;;;;;;;;;5.33;3.00;;;;;13.23;100.00;100088.38;2101380;28;46454;-48
2023/11/11 00:48:05;;;;;;;;;6.00;4.50;;;;;13.23;100.00;100093.72;2056963;28;46610;-46
2023/11/11 00:49:07;;;;;;;;;5.00;5.00;;;;;13.23;100.00;100085.72;2089974;28;46857;-48
2023/11/11 00:50:09;;;;;;;;;4.00;4.00;;;;;13.23;100.00;100088.38;2101603;28;47023;-47
2023/11/11 00:51:09;;;;;;;;;5.75;5.00;;;;;13.22;100.00;100089.31;2105733;28;46299;-47
2023/11/11 00:52:10;;;;;;;;;4.33;4.33;;;;;13.21;100.00;100087.56;2101250;28;46679;-45
2023/11/11 00:53:10;;;;;;;;;5.25;4.50;;;;;13.20;100.00;100089.34;2105661;28;46321;-47
2023/11/11 00:54:10;;;;;;;;;4.00;4.00;;;;;13.19;100.00;100090.28;2100228;28;46283;-45
2023/11/11 00:55:11;;;;;;;;;8.00;4.67;;;;;13.18;100.00;100091.22;2105004;28;46395;-47
2023/11/11 00:56:12;;;;;;;;;5.00;5.00;;;;;13.20;100.00;100100.00;2105526;28;46732;-45
2023/11/11 00:57:12;;;;;;;;;4.67;4.67;;;;;13.19;100.00;100094.75;2105267;28;46295;-48
2023/11/11 00:58:12;;;;;;;;;4.67;4.67;;;;;13.19;100.00;100089.41;2105368;28;46106;-45
2023/11/11 00:59:13;;;;;;;;;4.00;3.00;;;;;13.18;100.00;100092.97;2105496;28;46342;-49
2023/11/11 01:00:15;;;;;;;;;4.00;3.67;;;;;13.18;100.00;100092.97;2072851;28;46710;-48
2023/11/11 01:01:15;;;;;;;;;7.25;5.25;;;;;13.18;100.00;100092.97;2070437;28;46901;-44
2023/11/11 01:02:15;;;;;;;;;5.67;5.00;;;;;13.17;100.00;100091.25;2073122;28;46747;-49
2023/11/11 01:03:16;;;;;;;;;3.00;3.00;;;;;13.15;100.00;100090.47;2068956;28;46415;-47
2023/11/11 01:04:16;;;;;;;;;5.00;5.00;;;;;13.16;100.00;100094.84;2062242;28;46265;-45
2023/11/11 01:05:16;;;;;;;;;5.33;5.33;;;;;13.16;100.00;100086.84;2068522;28;46656;-49
2023/11/11 01:06:17;;;;;;;;;6.00;5.00;;;;;13.15;100.00;100091.31;2073381;28;46281;-45
2023/11/11 01:07:18;;;;;;;;;5.00;4.00;;;;;13.15;100.00;100095.78;2062371;28;46456;-45
2023/11/11 01:08:18;;;;;;;;;4.33;4.33;;;;;13.15;100.00;100098.44;2074688;28;46441;-49
2023/11/11 01:09:19;;;;;;;;;5.33;3.33;;;;;13.15;100.00;100082.47;2101614;28;46827;-44
2023/11/11 01:10:23;;;;;;;;;5.75;5.50;;;;;13.14;100.00;100084.25;2076890;28;46263;-45
2023/11/11 01:11:23;;;;;;;;;4.50;4.50;;;;;13.15;100.00;100093.13;2073692;28;46443;-47
2023/11/11 01:12:23;;;;;;;;;4.00;4.00;;;;;13.15;100.00;100090.47;2060830;28;46324;-48
2023/11/11 01:13:24;;;;;;;;;3.00;2.00;;;;;13.13;100.00;100084.34;2076142;28;46541;-46
2023/11/11 01:14:25;;;;;;;;;4.67;4.67;;;;;13.13;100.00;100090.53;2104716;28;46575;-46
2023/11/11 01:15:26;;;;;;;;;6.00;5.33;;;;;13.14;100.00;100091.38;2093266;28;46110;-47
2023/11/11 01:16:27;;;;;;;;;5.00;5.00;;;;;13.15;100.00;100085.13;2091866;28;46606;-46
2023/11/11 01:17:27;;;;;;;;;6.67;5.67;;;;;13.14;100.00;100091.38;2104907;28;46343;-47
2023/11/11 01:18:29;;;;;;;;;5.25;5.25;;;;;13.13;100.00;100087.88;2089947;28;46915;-43
2023/11/11 01:19:29;;;;;;;;;6.20;5.80;;;;;13.15;100.00;100103.78;2079261;27;45808;-45
2023/11/11 01:20:30;;;;;;;;;5.00;5.00;;;;;13.14;100.00;100092.25;2101162;28;46625;-48
2023/11/11 01:21:30;;;;;;;;;8.75;7.50;;;;;13.13;100.00;100103.84;2078594;27;46582;-48
2023/11/11 01:22:31;;;;;;;;;6.75;5.75;;;;;13.13;100.00;100101.19;2063423;28;46136;-49
2023/11/11 01:23:33;;;;;;;;;7.25;7.25;;;;;13.13;100.00;100105.66;2093661;28;45981;-43
2023/11/11 01:24:33;;;;;;;;;7.00;5.20;;;;;13.12;100.00;100104.78;2086294;28;46786;-46
2023/11/11 01:25:33;;;;;;;;;5.25;4.75;;;;;13.12;100.00;100109.25;2105370;28;46816;-46
2023/11/11 01:26:34;;;;;;;;;8.75;8.00;;;;;13.12;100.00;100109.25;2090383;28;46351;-43
2023/11/11 01:27:36;;;;;;;;;7.33;6.67;;;;;13.10;100.00;100114.63;2094030;28;46622;-45
2023/11/11 01:28:36;;;;;;;;;6.80;6.80;;;;;13.10;100.00;100114.63;2101988;28;46794;-43
2023/11/11 01:29:38;;;;;;;;;7.50;6.75;;;;;13.09;100.00;100109.38;2090630;28;46516;-47
2023/11/11 01:30:38;;;;;;;;;6.60;5.60;;;;;13.09;100.00;100107.59;2101371;28;46273;-48
2023/11/11 01:31:39;;;;;;;;;8.50;6.00;;;;;13.09;100.00;100112.91;2094799;28;46469;-45
2023/11/11 01:32:39;;;;;;;;;5.00;4.25;;;;;13.12;100.00;100114.56;2081198;28;46197;-46
2023/11/11 01:33:40;;;;;;;;;4.25;4.25;;;;;13.10;100.00;100100.44;2104372;28;46528;-45
2023/11/11 01:34:40;;;;;;;;;5.25;4.25;;;;;13.09;100.00;100112.91;2096763;28;46122;-49
2023/11/11 01:35:40;;;;;;;;;4.00;4.00;;;;;13.10;100.00;100108.44;2096864;28;46879;-47
2023/11/11 01:36:41;;;;;;;;;5.50;4.00;;;;;13.08;100.00;100105.81;2063058;28;45042;-45
2023/11/11 01:37:41;;;;;;;;;5.00;5.00;;;;;13.09;100.00;100117.38;2076955;28;46623;-49
2023/11/11 01:38:41;;;;;;;;;4.25;4.25;;;;;13.10;100.00;100111.09;2078575;28;46480;-47
2023/11/11 01:39:42;;;;;;;;;3.00;3.00;;;;;13.10;100.00;100111.97;2092777;28;46763;-46
2023/11/11 01:40:42;;;;;;;;;3.00;3.00;;;;;13.09;100.00;100112.03;2097874;28;46759;-46
2023/11/11 01:41:42;;;;;;;;;3.00;3.00;;;;;13.10;100.00;100113.78;2105295;28;46197;-46
2023/11/11 01:42:43;;;;;;;;;3.50;3.50;;;;;13.09;100.00;100112.91;2098241;27;46794;-45
2023/11/11 01:43:43;;;;;;;;;4.00;4.00;;;;;13.11;100.00;100112.84;2102701;28;46289;-45
2023/11/11 01:44:43;;;;;;;;;4.25;4.00;;;;;13.11;100.00;100116.38;2092481;28;46186;-47
2023/11/11 01:45:44;;;;;;;;;5.00;4.67;;;;;13.11;100.00;100115.50;2074581;28;46553;-47
2023/11/11 01:46:44;;;;;;;;;3.00;3.00;;;;;13.12;100.00;100117.22;2105223;27;46132;-46
2023/11/11 01:47:45;;;;;;;;;4.25;4.25;;;;;13.13;100.00;100113.63;2097900;27;46554;-49
2023/11/11 01:48:45;;;;;;;;;4.75;3.75;;;;;13.14;100.00;100118.03;2097316;28;46386;-47
2023/11/11 01:49:46;;;;;;;;;4.75;4.00;;;;;13.14;100.00;100113.56;2104726;28;46420;-47
2023/11/11 01:50:47;;;;;;;;;2.33;2.33;;;;;13.15;100.00;100114.44;2085950;28;47076;-48
2023/11/11 01:51:49;;;;;;;;;3.80;3.80;;;;;13.13;100.00;100103.84;2098942;28;46887;-47
2023/11/11 01:52:50;;;;;;;;;4.50;4.50;;;;;13.14;100.00;100105.56;2100704;28;46533;-44
2023/11/11 01:53:50;;;;;;;;;3.00;3.00;;;;;13.14;100.00;100104.72;2101165;28;46332;-48
2023/11/11 01:54:51;;;;;;;;;4.00;3.33;;;;;13.14;100.00;100104.72;2105211;28;46699;-46
2023/11/11 01:55:51;;;;;;;;;4.00;4.00;;;;;13.14;100.00;100102.91;2068840;28;46635;-48
2023/11/11 01:56:53;;;;;;;;;4.00;4.00;;;;;13.13;100.00;100105.66;2056527;28;46368;-48
2023/11/11 01:57:53;;;;;;;;;5.00;4.25;;;;;13.12;100.00;100106.56;2062748;28;46357;-49
2023/11/11 01:58:54;;;;;;;;;3.67;3.67;;;;;13.13;100.00;100109.19;2084138;28;46252;-43
2023/11/11 01:59:57;;;;;;;;;3.00;3.00;;;;;13.14;100.00;100112.69;2104996;28;46624;-45
2023/11/11 02:00:58;;;;;;;;;3.50;3.00;;;;;13.14;100.00;100115.38;2103252;28;46420;-47
2023/11/11 02:02:00;;;;;;;;;6.00;4.00;;;;;13.14;100.00;100121.56;2101798;28;47431;-44
2023/11/11 02:03:00;;;;;;;;;4.00;4.00;;;;;13.13;100.00;100117.16;2104976;28;46506;-45
2023/11/11 02:04:00;;;;;;;;;3.00;3.00;;;;;13.14;100.00;100118.03;2098995;28;46281;-49
2023/11/11 02:05:01;;;;;;;;;3.00;3.00;;;;;13.14;100.00;100118.03;2075978;28;46231;-48
2023/11/11 02:06:01;;;;;;;;;5.67;4.00;;;;;13.12;100.00;100112.78;2105036;27;46737;-46
2023/11/11 02:07:02;;;;;;;;;4.75;4.00;;;;;13.12;100.00;100115.44;2101723;27;46166;-47
2023/11/11 02:08:06;;;;;;;;;3.75;3.75;;;;;13.13;100.00;100113.63;2104875;28;46875;-45
2023/11/11 02:09:06;;;;;;;;;2.20;1.00;;;;;13.13;100.00;100110.97;2103835;28;46770;-45
2023/11/11 02:10:08;;;;;;;;;5.67;5.00;;;;;13.12;100.00;100117.22;2078489;28;46609;-45
2023/11/11 02:11:10;;;;;;;;;3.25;2.75;;;;;13.11;100.00;100113.72;2062780;28;46419;-46
2023/11/11 02:12:11;;;;;;;;;5.20;4.20;;;;;13.12;100.00;100114.56;2073299;28;46284;-46
2023/11/11 02:13:11;;;;;;;;;2.33;2.33;;;;;13.11;100.00;100119.03;2055148;28;46379;-46
2023/11/11 02:14:12;;;;;;;;;4.00;4.00;;;;;13.09;100.00;100123.56;2101038;27;46529;-50
2023/11/11 02:15:15;;;;;;;;;3.25;3.25;;;;;13.08;100.00;100116.47;2100890;28;46255;-51
2023/11/11 02:16:16;;;;;;;;;1.50;1.50;;;;;13.08;100.00;100118.28;2105233;28;46469;-46
2023/11/11 02:17:16;;;;;;;;;4.75;4.00;;;;;13.07;100.00;100122.72;2100803;28;46260;-46
2023/11/11 02:18:16;;;;;;;;;3.00;3.00;;;;;13.07;100.00;100122.72;2100591;28;46904;-45
2023/11/11 02:19:17;;;;;;;;;5.00;3.00;;;;;13.07;100.00;100128.06;2105150;28;46337;-48
2023/11/11 02:20:17;;;;;;;;;4.00;4.00;;;;;13.08;100.00;100123.59;2101534;28;46133;-45
2023/11/11 02:21:18;;;;;;;;;3.33;3.33;;;;;13.07;100.00;100125.41;2103839;28;46308;-48
2023/11/11 02:22:18;;;;;;;;;3.00;3.00;;;;;13.07;100.00;100122.72;2103509;28;46883;-45
2023/11/11 02:23:19;;;;;;;;;4.00;4.00;;;;;13.07;100.00;100122.72;2101758;28;46489;-44
2023/11/11 02:24:21;;;;;;;;;4.33;3.33;;;;;13.06;100.00;100123.66;2070820;28;46745;-46
2023/11/11 02:25:21;;;;;;;;;3.25;2.75;;;;;13.05;100.00;100124.59;2085544;28;46358;-44
2023/11/11 02:26:22;;;;;;;;;4.50;3.50;;;;;13.06;100.00;100126.31;2065025;28;46901;-48
2023/11/11 02:27:22;;;;;;;;;3.00;3.00;;;;;13.05;100.00;100127.25;2070119;28;46957;-51
2023/11/11 02:28:22;;;;;;;;;3.50;3.00;;;;;13.05;100.00;100121.06;2071119;28;46715;-46
2023/11/11 02:29:23;;;;;;;;;4.00;4.00;;;;;13.04;100.00;100117.53;2067411;28;46638;-48
2023/11/11 02:30:23;;;;;;;;;1.00;1.00;;;;;13.04;100.00;100117.53;2070526;28;46326;-52
2023/11/11 02:31:23;;;;;;;;;6.00;5.00;;;;;13.03;100.00;100121.13;2070983;28;46557;-46
2023/11/11 02:32:24;;;;;;;;;4.50;4.50;;;;;13.02;100.00;100114.06;2085394;28;46722;-45
2023/11/11 02:33:24;;;;;;;;;5.00;4.00;;;;;13.03;100.00;100117.59;2078311;27;45738;-44
2023/11/11 02:34:24;;;;;;;;;3.67;3.67;;;;;13.02;100.00;100114.06;2064109;28;46339;-45
2023/11/11 02:35:25;;;;;;;;;3.67;3.67;;;;;13.02;100.00;100114.06;2070439;28;46300;-48
2023/11/11 02:36:25;;;;;;;;;4.00;4.00;;;;;13.02;100.00;100114.06;2071058;28;46691;-48
2023/11/11 02:37:26;;;;;;;;;4.00;4.00;;;;;13.01;100.00;100111.47;2070843;28;46979;-47
2023/11/11 02:38:26;;;;;;;;;3.00;3.00;;;;;13.01;100.00;100111.47;2071101;28;46570;-47
2023/11/11 02:39:26;;;;;;;;;4.50;3.25;;;;;13.01;100.00;100116.81;2081701;28;46475;-49
2023/11/11 02:40:27;;;;;;;;;4.00;4.00;;;;;12.98;100.00;100117.81;2104208;28;46284;-44
2023/11/11 02:41:27;;;;;;;;;6.25;4.50;;;;;12.98;100.00;100125.78;2082826;28;46498;-48
2023/11/11 02:42:28;;;;;;;;;6.00;4.00;;;;;13.00;100.00;100129.25;2073487;28;46196;-47
2023/11/11 02:43:28;;;;;;;;;4.67;3.67;;;;;12.98;100.00;100125.78;2065883;28;45956;-51
2023/11/11 02:44:28;;;;;;;;;4.00;4.00;;;;;12.98;100.00;100132.91;2068957;28;46246;-51
2023/11/11 02:45:29;;;;;;;;;5.00;4.33;;;;;12.97;100.00;100132.06;2069745;28;46639;-45
2023/11/11 02:46:29;;;;;;;;;4.00;4.00;;;;;12.97;100.00;100129.38;2068871;28;47080;-44
2023/11/11 02:47:31;;;;;;;;;4.00;4.00;;;;;12.98;100.00;100132.91;2062156;28;46806;-48
2023/11/11 02:48:32;;;;;;;;;4.25;4.25;;;;;12.97;100.00;100132.06;2070319;28;46676;-49
2023/11/11 02:49:32;;;;;;;;;4.75;4.75;;;;;12.96;100.00;100128.53;2073334;28;46475;-48
2023/11/11 02:50:33;;;;;;;;;3.50;3.00;;;;;12.98;100.00;100128.47;2073256;28;46214;-48
2023/11/11 02:51:34;;;;;;;;;5.33;3.67;;;;;12.97;100.00;100124.06;2070478;28;46420;-46
2023/11/11 02:52:34;;;;;;;;;7.00;4.75;;;;;12.94;100.00;100127.69;2073001;28;45194;-45
2023/11/11 02:53:35;;;;;;;;;5.00;4.00;;;;;12.95;100.00;100128.56;2069998;28;46732;-46
2023/11/11 02:54:35;;;;;;;;;6.33;4.00;;;;;12.94;100.00;100122.38;2073189;28;46557;-46
2023/11/11 02:55:35;;;;;;;;;3.67;3.67;;;;;12.94;100.00;100117.03;2072896;28;46952;-47
2023/11/11 02:56:36;;;;;;;;;3.67;3.67;;;;;12.94;100.00;100117.03;2070651;28;46554;-45
2023/11/11 02:57:36;;;;;;;;;4.00;4.00;;;;;12.93;100.00;100112.66;2072543;28;46256;-47
2023/11/11 02:58:36;;;;;;;;;3.33;3.33;;;;;12.94;100.00;100114.38;2072350;28;46618;-48
2023/11/11 02:59:39;;;;;;;;;5.00;4.00;;;;;12.94;100.00;100121.50;2070161;28;46464;-45
2023/11/11 03:00:40;;;;;;;;;3.75;3.75;;;;;12.93;100.00;100130.44;2070322;28;46846;-47
2023/11/11 03:01:41;;;;;;;;;5.33;5.00;;;;;12.92;100.00;100126.91;2080746;28;46518;-45
2023/11/11 03:02:41;;;;;;;;;4.75;4.75;;;;;12.91;100.00;100126.97;2076412;28;46848;-47
2023/11/11 03:03:44;;;;;;;;;2.67;2.67;;;;;12.91;100.00;100130.50;2069298;28;45753;-46
2023/11/11 03:04:44;;;;;;;;;3.75;3.75;;;;;12.92;100.00;100131.34;2070182;28;46410;-47
2023/11/11 03:05:44;;;;;;;;;6.00;4.33;;;;;12.92;100.00;100134.03;2072722;28;46355;-46
2023/11/11 03:06:46;;;;;;;;;3.00;3.00;;;;;12.91;100.00;100138.47;2072143;28;46422;-44
2023/11/11 03:07:46;;;;;;;;;5.75;3.25;;;;;12.91;100.00;100138.47;2070552;28;46979;-46
2023/11/11 03:08:47;;;;;;;;;3.67;3.67;;;;;12.91;100.00;100132.28;2071861;28;46006;-49
2023/11/11 03:09:47;;;;;;;;;4.00;4.00;;;;;12.92;100.00;100131.34;2070575;28;46256;-47
2023/11/11 03:10:47;;;;;;;;;5.33;4.33;;;;;12.91;100.00;100138.47;2065224;28;46253;-48
2023/11/11 03:11:50;;;;;;;;;1.00;1.00;;;;;12.91;100.00;100137.63;2066012;28;46483;-46
2023/11/11 03:12:50;;;;;;;;;4.25;3.00;;;;;12.92;100.00;100142.00;2068519;27;46372;-47
2023/11/11 03:13:51;;;;;;;;;3.00;3.00;;;;;12.92;100.00;100144.66;2089253;28;47285;-46
2023/11/11 03:14:51;;;;;;;;;3.00;3.00;;;;;12.93;100.00;100147.28;2080464;28;46435;-46
2023/11/11 03:15:52;;;;;;;;;4.00;4.00;;;;;12.92;100.00;100139.34;2090333;28;46042;-46
2023/11/11 03:16:53;;;;;;;;;4.00;4.00;;;;;12.93;100.00;100147.28;2067662;28;46187;-45
2023/11/11 03:17:53;;;;;;;;;3.00;2.67;;;;;12.92;100.00;100144.66;2088267;27;46752;-47
2023/11/11 03:18:53;;;;;;;;;2.67;2.67;;;;;12.92;100.00;100144.66;2095714;28;46615;-48
2023/11/11 03:19:54;;;;;;;;;4.00;4.00;;;;;12.92;100.00;100144.66;2075560;28;46436;-48
2023/11/11 03:20:58;;;;;;;;;4.00;4.00;;;;;12.92;100.00;100147.34;2071795;28;46726;-49
2023/11/11 03:21:58;;;;;;;;;3.00;3.00;;;;;12.91;100.00;100145.59;2082811;28;46875;-47
2023/11/11 03:22:59;;;;;;;;;6.00;4.00;;;;;12.93;100.00;100146.41;2079258;28;46224;-46
2023/11/11 03:23:59;;;;;;;;;5.00;5.00;;;;;12.92;100.00;100148.19;2092251;28;46106;-47
2023/11/11 03:24:59;;;;;;;;;6.00;3.00;;;;;12.91;100.00;100153.59;2062863;28;46316;-48
2023/11/11 03:26:00;;;;;;;;;4.00;4.00;;;;;12.89;100.00;100145.66;2079294;28;46784;-45
2023/11/11 03:27:00;;;;;;;;;7.00;5.00;;;;;12.89;100.00;100151.00;2099728;28;46300;-51
2023/11/11 03:28:01;;;;;;;;;3.67;3.67;;;;;12.89;100.00;100152.78;2075124;28;45594;-47
2023/11/11 03:29:01;;;;;;;;;3.00;3.00;;;;;12.88;100.00;100159.91;2092316;28;46751;-47
2023/11/11 03:30:02;;;;;;;;;3.00;3.00;;;;;12.88;100.00;100151.94;2079002;28;46367;-46
2023/11/11 03:31:03;;;;;;;;;4.00;4.00;;;;;12.89;100.00;100159.00;2081024;28;46885;-50
2023/11/11 03:32:04;;;;;;;;;4.00;3.33;;;;;12.89;100.00;100159.00;2066311;28;46455;-48
2023/11/11 03:33:04;;;;;;;;;4.00;3.00;;;;;12.90;100.00;100159.84;2065384;28;46253;-47
2023/11/11 03:34:04;;;;;;;;;4.00;4.00;;;;;12.91;100.00;100161.59;2085444;28;46935;-49
2023/11/11 03:35:05;;;;;;;;;3.33;3.33;;;;;12.91;100.00;100157.13;2077053;28;46487;-49
2023/11/11 03:36:05;;;;;;;;;3.67;3.67;;;;;12.90;100.00;100168.72;2074243;28;47019;-45
2023/11/11 03:37:06;;;;;;;;;4.00;3.00;;;;;12.91;100.00;100159.78;2089431;28;46315;-45
2023/11/11 03:38:09;;;;;;;;;3.33;3.33;;;;;12.91;100.00;100167.78;2068891;28;45866;-45
2023/11/11 03:39:10;;;;;;;;;3.00;3.00;;;;;12.92;100.00;100165.97;2080462;28;46378;-47
2023/11/11 03:40:11;;;;;;;;;1.25;1.25;;;;;12.91;100.00;100161.59;2066430;28;45919;-45
2023/11/11 03:41:11;;;;;;;;;3.00;3.00;;;;;12.91;100.00;100167.78;2074974;28;46683;-48
2023/11/11 03:42:11;;;;;;;;;2.00;2.00;;;;;12.91;100.00;100164.25;2091052;28;46284;-45
2023/11/11 03:43:12;;;;;;;;;2.67;2.67;;;;;12.92;100.00;100156.19;2088519;28;46409;-50
2023/11/11 03:44:12;;;;;;;;;4.00;4.00;;;;;12.93;100.00;100165.91;2076671;28;46731;-45
2023/11/11 03:45:12;;;;;;;;;2.00;2.00;;;;;12.92;100.00;100160.66;2082094;28;46734;-47
2023/11/11 03:46:12;;;;;;;;;3.67;3.67;;;;;12.93;100.00;100159.72;2069552;28;46306;-46
2023/11/11 03:47:13;;;;;;;;;2.00;2.00;;;;;12.92;100.00;100161.53;2083473;28;46464;-47
2023/11/11 03:48:13;;;;;;;;;3.67;3.67;;;;;12.93;100.00;100162.38;2076029;28;47014;-46
2023/11/11 03:49:14;;;;;;;;;4.00;4.00;;;;;12.93;100.00;100162.38;2096202;28;47109;-45
2023/11/11 03:50:14;;;;;;;;;3.67;3.00;;;;;12.93;100.00;100170.38;2099185;28;46835;-47
2023/11/11 03:51:15;;;;;;;;;4.00;4.00;;;;;12.91;100.00;100173.09;2088922;28;45881;-47
2023/11/11 03:52:15;;;;;;;;;2.67;2.67;;;;;12.93;100.00;100175.69;2103055;28;46385;-45
2023/11/11 03:53:16;;;;;;;;;3.00;3.00;;;;;12.94;100.00;100167.66;2098444;28;46746;-47
2023/11/11 03:54:17;;;;;;;;;2.00;2.00;;;;;12.93;100.00;100165.03;2068867;28;46146;-49
2023/11/11 03:55:17;;;;;;;;;2.00;2.00;;;;;12.94;100.00;100172.97;2064079;28;46171;-46
2023/11/11 03:56:21;;;;;;;;;2.33;2.33;;;;;12.95;100.00;100161.38;2095047;28;46405;-48
2023/11/11 03:57:21;;;;;;;;;3.00;3.00;;;;;12.94;100.00;100164.97;2078522;28;46909;-45
2023/11/11 03:58:22;;;;;;;;;3.67;3.67;;;;;12.94;100.00;100175.63;2095218;28;46561;-48
2023/11/11 03:59:23;;;;;;;;;2.00;2.00;;;;;12.94;100.00;100175.63;2090740;28;46617;-48
2023/11/11 04:00:23;;;;;;;;;3.00;3.00;;;;;12.94;100.00;100175.63;2085002;28;46592;-48
2023/11/11 04:01:24;;;;;;;;;4.00;3.00;;;;;12.94;100.00;100175.63;2070543;28;46523;-50
2023/11/11 04:02:25;;;;;;;;;4.00;4.00;;;;;12.94;100.00;100177.44;2083399;28;46871;-46
2023/11/11 04:03:26;;;;;;;;;2.50;2.50;;;;;12.94;100.00;100178.28;2092596;28;46686;-47
2023/11/11 04:04:26;;;;;;;;;4.67;3.33;;;;;12.95;100.00;100179.16;2097358;28;46492;-47
2023/11/11 04:05:27;;;;;;;;;2.00;2.00;;;;;12.95;100.00;100179.16;2084761;28;46292;-47
2023/11/11 04:06:27;;;;;;;;;2.00;2.00;;;;;12.96;100.00;100186.25;2102899;28;46526;-46
2023/11/11 04:07:27;;;;;;;;;2.00;2.00;;;;;12.96;100.00;100184.47;2085271;28;46242;-47
2023/11/11 04:08:29;;;;;;;;;3.00;2.67;;;;;12.96;100.00;100187.13;2094943;28;46478;-44
2023/11/11 04:09:30;;;;;;;;;3.00;3.00;;;;;12.98;100.00;100188.84;2083675;28;46074;-50
2023/11/11 04:10:30;;;;;;;;;3.00;3.00;;;;;12.97;100.00;100185.31;2069618;28;47047;-46
2023/11/11 04:11:31;;;;;;;;;2.33;2.33;;;;;12.96;100.00;100187.13;2078853;28;47128;-46
2023/11/11 04:12:31;;;;;;;;;3.67;3.67;;;;;12.98;100.00;100183.53;2073066;28;46190;-46
2023/11/11 04:13:31;;;;;;;;;4.33;2.67;;;;;12.96;100.00;100179.13;2106570;28;46740;-44
2023/11/11 04:14:32;;;;;;;;;3.00;3.00;;;;;12.96;100.00;100179.13;2093950;28;46581;-48
2023/11/11 04:15:32;;;;;;;;;0.67;0.67;;;;;12.96;100.00;100179.13;2095486;28;46413;-46
2023/11/11 04:16:32;;;;;;;;;2.00;2.00;;;;;12.96;100.00;100180.94;2102688;28;46212;-44
2023/11/11 04:17:33;;;;;;;;;3.33;3.00;;;;;12.94;100.00;100174.78;2092829;28;46162;-46
2023/11/11 04:18:34;;;;;;;;;3.00;2.67;;;;;12.95;100.00;100179.16;2103384;28;46178;-47
2023/11/11 04:19:34;;;;;;;;;2.00;2.00;;;;;12.89;100.00;100182.97;2096555;28;46522;-48
2023/11/11 04:20:34;;;;;;;;;2.67;2.00;;;;;12.93;100.00;100176.56;2094791;27;46678;-46
2023/11/11 04:21:35;;;;;;;;;3.00;3.00;;;;;12.94;100.00;100172.97;2105920;28;46534;-46
2023/11/11 04:22:35;;;;;;;;;2.00;2.00;;;;;12.94;100.00;100170.31;2063446;28;46409;-45
2023/11/11 04:23:35;;;;;;;;;2.33;2.33;;;;;12.94;100.00;100161.44;2056754;28;46780;-46
2023/11/11 04:24:35;;;;;;;;;2.00;2.00;;;;;12.93;100.00;100168.56;2079375;28;46498;-46
2023/11/11 04:25:36;;;;;;;;;2.00;2.00;;;;;12.93;100.00;100163.25;2066078;28;46236;-46
2023/11/11 04:26:36;;;;;;;;;4.00;4.00;;;;;12.94;100.00;100172.09;2081092;28;45046;-46
2023/11/11 04:27:37;;;;;;;;;2.67;2.67;;;;;12.94;100.00;100174.78;2098401;27;46746;-45
2023/11/11 04:28:42;;;;;;;;;2.00;1.75;;;;;12.93;100.00;100181.03;2092030;28;46805;-44
2023/11/11 04:29:43;;;;;;;;;2.00;2.00;;;;;12.94;100.00;100190.75;2105969;28;46550;-46
2023/11/11 04:30:43;;;;;;;;;2.00;2.00;;;;;12.92;100.00;100193.47;2097737;28;46475;-47
2023/11/11 04:31:43;;;;;;;;;3.67;3.67;;;;;12.91;100.00;100189.09;2098278;28;46890;-45
2023/11/11 04:32:44;;;;;;;;;2.00;2.00;;;;;12.81;100.00;100195.69;2104750;28;47201;-49
2023/11/11 04:33:44;;;;;;;;;2.00;2.00;;;;;12.83;100.00;100196.53;2095876;28;46641;-44
2023/11/11 04:34:44;;;;;;;;;4.00;2.33;;;;;12.89;100.00;100198.06;2058768;28;46306;-46
2023/11/11 04:35:45;;;;;;;;;2.00;2.00;;;;;12.90;100.00;100200.66;2069191;28;46897;-44
2023/11/11 04:36:45;;;;;;;;;4.33;3.33;;;;;12.90;100.00;100202.47;2070549;28;46393;-46
2023/11/11 04:37:46;;;;;;;;;2.33;2.33;;;;;12.89;100.00;100209.59;2097228;28;45745;-47
2023/11/11 04:38:46;;;;;;;;;2.00;2.00;;;;;12.89;100.00;100208.72;2071561;28;46544;-45